createdAt,value
2018-06-03T00:00:43.067Z,66.10
2018-06-03T00:03:14.631Z,66.40
2018-06-03T00:05:45.895Z,66.40
2018-06-03T00:08:15.446Z,67.00
2018-06-03T00:10:45.359Z,67.20
2018-06-03T00:13:15.689Z,67.20
2018-06-03T00:15:44.926Z,67.50
2018-06-03T00:18:14.851Z,67.10
2018-06-03T00:21:01.863Z,67.10
2018-06-03T00:23:30.985Z,67.20
2018-06-03T00:26:00.241Z,67.20
2018-06-03T00:28:29.307Z,67.30
2018-06-03T00:30:58.400Z,67.20
2018-06-03T00:33:27.704Z,67.10
2018-06-03T00:36:14.578Z,67.20
2018-06-03T00:38:45.720Z,67.20
2018-06-03T00:41:14.875Z,67.10
2018-06-03T00:43:43.937Z,67.60
2018-06-03T00:46:13.060Z,67.70
2018-06-03T00:48:42.151Z,68.00
2018-06-03T00:51:11.168Z,67.90
2018-06-03T00:53:40.941Z,67.80
2018-06-03T00:56:09.988Z,67.80
2018-06-03T00:58:39.004Z,68.50
2018-06-03T01:01:08.041Z,67.90
2018-06-03T01:03:37.048Z,68.30
2018-06-03T01:06:06.111Z,68.40
2018-06-03T01:08:35.124Z,68.60
2018-06-03T01:11:04.123Z,68.70
2018-06-03T01:13:33.989Z,68.30
2018-06-03T01:16:03.017Z,68.20
2018-06-03T01:18:32.015Z,68.00
2018-06-03T01:21:01.062Z,68.10
2018-06-03T01:23:30.413Z,68.00
2018-06-03T01:25:59.418Z,68.10
2018-06-03T01:28:29.196Z,68.30
2018-06-03T01:30:58.233Z,68.30
2018-06-03T01:33:28.003Z,68.40
2018-06-03T01:35:57.047Z,68.30
2018-06-03T01:38:26.135Z,68.20
2018-06-03T01:40:55.143Z,68.10
2018-06-03T01:43:24.162Z,68.00
2018-06-03T01:45:53.226Z,68.10
2018-06-03T01:48:22.236Z,68.00
2018-06-03T01:50:51.251Z,67.90
2018-06-03T01:53:20.292Z,68.00
2018-06-03T01:55:49.318Z,68.10
2018-06-03T01:58:18.354Z,68.40
2018-06-03T02:00:47.362Z,68.70
2018-06-03T02:03:17.159Z,68.70
2018-06-03T02:05:46.171Z,68.70
2018-06-03T02:08:15.252Z,68.70
2018-06-03T02:10:45.023Z,68.90
2018-06-03T02:13:14.044Z,68.90
2018-06-03T02:15:43.143Z,69.00
2018-06-03T02:18:12.919Z,69.10
2018-06-03T02:20:41.923Z,69.10
2018-06-03T02:23:11.014Z,69.10
2018-06-03T02:25:40.043Z,68.90
2018-06-03T02:28:09.832Z,69.00
2018-06-03T02:30:38.867Z,68.90
2018-06-03T02:33:07.891Z,69.10
2018-06-03T02:35:36.934Z,69.30
2018-06-03T02:38:06.709Z,69.60
2018-06-03T02:40:35.862Z,69.50
2018-06-03T02:43:04.887Z,69.60
2018-06-03T02:45:33.902Z,69.80
2018-06-03T02:48:02.937Z,70.60
2018-06-03T02:50:31.956Z,70.00
2018-06-03T02:53:01.009Z,70.20
2018-06-03T02:55:30.821Z,70.30
2018-06-03T02:57:59.829Z,70.10
2018-06-03T03:00:28.873Z,70.10
2018-06-03T03:02:57.884Z,70.20
2018-06-03T03:05:26.923Z,70.00
2018-06-03T03:07:55.950Z,69.90
2018-06-03T03:10:24.947Z,69.70
2018-06-03T03:12:54.002Z,69.90
2018-06-03T03:15:23.013Z,69.90
2018-06-03T03:17:52.031Z,69.90
2018-06-03T03:20:21.100Z,70.90
2018-06-03T03:22:50.112Z,70.20
2018-06-03T03:25:19.119Z,70.20
2018-06-03T03:27:48.161Z,70.00
2018-06-03T03:30:17.455Z,70.30
2018-06-03T03:32:46.493Z,70.30
2018-06-03T03:35:15.506Z,70.10
2018-06-03T03:37:44.545Z,69.90
2018-06-03T03:40:13.553Z,69.90
2018-06-03T03:42:42.619Z,70.00
2018-06-03T03:45:12.158Z,70.00
2018-06-03T03:47:41.167Z,69.80
2018-06-03T03:50:10.222Z,69.60
2018-06-03T03:52:39.237Z,70.00
2018-06-03T03:55:08.239Z,70.10
2018-06-03T03:57:37.274Z,70.00
2018-06-03T04:00:06.279Z,69.90
2018-06-03T04:02:35.319Z,69.80
2018-06-03T04:05:04.331Z,70.00
2018-06-03T04:07:34.137Z,69.60
2018-06-03T04:10:03.236Z,69.60
2018-06-03T04:12:32.275Z,69.40
2018-06-03T04:15:01.288Z,69.40
2018-06-03T04:17:30.323Z,69.50
2018-06-03T04:19:59.337Z,69.40
2018-06-03T04:22:28.378Z,69.60
2018-06-03T04:24:57.383Z,69.40
2018-06-03T04:27:26.427Z,69.20
2018-06-03T04:29:55.438Z,69.00
2018-06-03T04:32:24.461Z,69.00
2018-06-03T04:34:53.503Z,69.00
2018-06-03T04:37:22.506Z,68.80
2018-06-03T04:39:51.547Z,68.70
2018-06-03T04:42:20.553Z,68.50
2018-06-03T04:44:50.375Z,68.10
2018-06-03T04:47:19.380Z,68.20
2018-06-03T04:49:48.387Z,67.80
2018-06-03T04:52:17.426Z,67.90
2018-06-03T04:54:46.475Z,67.70
2018-06-03T04:57:15.484Z,67.60
2018-06-03T04:59:44.527Z,67.50
2018-06-03T05:02:14.298Z,66.70
2018-06-03T05:04:43.338Z,66.70
2018-06-03T05:07:12.343Z,66.40
2018-06-03T05:09:41.383Z,66.40
2018-06-03T05:12:10.394Z,66.50
2018-06-03T05:14:39.434Z,66.40
2018-06-03T05:17:08.471Z,66.00
2018-06-03T05:19:37.908Z,65.80
2018-06-03T05:22:06.931Z,65.70
2018-06-03T05:24:35.951Z,65.80
2018-06-03T05:27:04.997Z,65.10
2018-06-03T05:29:34.767Z,65.40
2018-06-03T05:32:03.810Z,65.40
2018-06-03T05:34:32.928Z,65.40
2018-06-03T05:37:01.984Z,65.20
2018-06-03T05:39:31.767Z,64.70
2018-06-03T05:42:00.850Z,64.70
2018-06-03T05:44:29.869Z,64.30
2018-06-03T05:46:58.926Z,64.40
2018-06-03T05:49:28.363Z,64.70
2018-06-03T05:51:57.371Z,65.10
2018-06-03T05:54:27.173Z,63.70
2018-06-03T05:56:56.955Z,63.70
2018-06-03T05:59:26.007Z,63.60
2018-06-03T06:01:55.094Z,63.70
2018-06-03T06:04:24.871Z,62.50
2018-06-03T06:06:53.959Z,62.50
2018-06-03T06:09:23.008Z,62.20
2018-06-03T06:11:52.055Z,61.90
2018-06-03T06:14:21.237Z,60.90
2018-06-03T06:16:50.289Z,61.00
2018-06-03T06:19:19.302Z,60.20
2018-06-03T06:21:48.343Z,60.30
2018-06-03T06:24:17.430Z,59.80
2018-06-03T06:26:46.503Z,59.00
2018-06-03T06:29:15.557Z,59.10
2018-06-03T06:31:44.595Z,57.90
2018-06-03T06:34:13.607Z,57.60
2018-06-03T06:36:42.639Z,58.30
2018-06-03T06:39:11.767Z,56.50
2018-06-03T06:42:11.787Z,56.30
2018-06-03T06:44:42.767Z,55.90
2018-06-03T06:47:12.999Z,56.90
2018-06-03T06:49:43.203Z,56.90
2018-06-03T06:52:13.454Z,55.60
2018-06-03T06:54:43.846Z,53.80
2018-06-03T06:57:14.154Z,51.40
2018-06-03T06:59:44.611Z,49.80
2018-06-03T07:02:14.853Z,49.50
2018-06-03T07:04:45.104Z,49.50
2018-06-03T07:07:15.335Z,49.50
2018-06-03T07:09:45.555Z,49.70
2018-06-03T07:12:15.823Z,48.60
2018-06-03T07:14:46.192Z,48.50
2018-06-03T07:17:16.454Z,48.50
2018-06-03T07:19:46.697Z,48.90
2018-06-03T07:22:16.959Z,50.10
2018-06-03T07:24:47.227Z,48.20
2018-06-03T07:27:17.483Z,47.40
2018-06-03T07:29:47.697Z,47.10
2018-06-03T07:32:17.968Z,46.50
2018-06-03T07:34:48.683Z,45.20
2018-06-03T07:37:19.291Z,45.60
2018-06-03T07:39:50.066Z,44.90
2018-06-03T07:42:20.868Z,45.40
2018-06-03T07:44:51.125Z,43.80
2018-06-03T07:47:21.517Z,43.10
2018-06-03T07:49:51.745Z,42.30
2018-06-03T07:52:22.057Z,41.80
2018-06-03T07:54:52.948Z,41.40
2018-06-03T07:57:23.313Z,42.00
2018-06-03T07:59:53.491Z,41.40
2018-06-03T08:02:23.727Z,40.80
2018-06-03T08:04:53.931Z,41.80
2018-06-03T08:07:24.182Z,41.30
2018-06-03T08:09:54.383Z,40.50
2018-06-03T08:12:24.655Z,41.10
2018-06-03T08:14:54.914Z,42.50
2018-06-03T08:17:25.154Z,40.70
2018-06-03T08:19:55.395Z,40.10
2018-06-03T08:22:25.729Z,40.90
2018-06-03T08:24:55.976Z,41.60
2018-06-03T08:27:26.367Z,41.40
2018-06-03T08:29:56.579Z,40.90
2018-06-03T08:32:26.911Z,40.60
2018-06-03T08:34:57.139Z,41.90
2018-06-03T08:37:27.385Z,40.70
2018-06-03T08:39:57.600Z,40.40
2018-06-03T08:42:27.836Z,40.60
2018-06-03T08:44:58.039Z,39.90
2018-06-03T08:47:28.312Z,40.30
2018-06-03T08:49:58.539Z,39.30
2018-06-03T08:52:28.927Z,39.30
2018-06-03T08:54:59.171Z,39.00
2018-06-03T08:57:29.433Z,39.70
2018-06-03T08:59:59.910Z,39.80
2018-06-03T09:02:30.175Z,40.50
2018-06-03T09:05:00.698Z,43.00
2018-06-03T09:07:30.971Z,40.00
2018-06-03T09:10:01.214Z,39.00
2018-06-03T09:12:31.528Z,39.90
2018-06-03T09:15:02.906Z,39.20
2018-06-03T09:17:33.213Z,37.70
2018-06-03T09:20:04.070Z,37.30
2018-06-03T09:22:34.816Z,39.00
2018-06-03T09:25:05.637Z,37.80
2018-06-03T09:27:36.022Z,40.50
2018-06-03T09:30:06.500Z,38.10
2018-06-03T09:32:36.722Z,36.40
2018-06-03T09:35:08.450Z,38.30
2018-06-03T09:37:38.822Z,37.50
2018-06-03T09:40:09.660Z,38.90
2018-06-03T09:42:40.231Z,38.00
2018-06-03T09:45:12.127Z,35.90
2018-06-03T09:47:43.188Z,36.80
2018-06-03T09:50:15.314Z,35.90
2018-06-03T09:52:46.129Z,35.40
2018-06-03T09:55:17.569Z,35.90
2018-06-03T09:57:48.486Z,35.20
2018-06-03T10:00:23.337Z,36.10
2018-06-03T10:02:53.715Z,35.10
2018-06-03T10:05:27.403Z,36.10
2018-06-03T10:07:57.647Z,34.90
2018-06-03T10:10:29.637Z,36.20
2018-06-03T10:13:00.393Z,35.90
2018-06-03T10:15:32.501Z,37.50
2018-06-03T10:18:03.606Z,36.60
2018-06-03T10:20:34.010Z,38.20
2018-06-03T10:23:04.357Z,35.50
2018-06-03T10:25:34.668Z,36.20
2018-06-03T10:28:05.563Z,35.60
2018-06-03T10:30:36.588Z,34.80
2018-06-03T10:35:38.710Z,33.40
2018-06-03T10:38:08.935Z,34.10
2018-06-03T10:40:39.783Z,35.80
2018-06-03T10:43:10.006Z,35.70
2018-06-03T10:45:40.991Z,36.20
2018-06-03T10:48:11.208Z,35.20
2018-06-03T10:50:44.909Z,34.40
2018-06-03T10:53:16.153Z,35.80
2018-06-03T10:55:46.649Z,35.30
2018-06-03T10:58:16.947Z,33.40
2018-06-03T11:00:47.230Z,33.00
2018-06-03T11:03:17.515Z,33.20
2018-06-03T11:05:48.103Z,34.70
2018-06-03T11:08:18.643Z,34.00
2018-06-03T11:10:48.895Z,33.90
2018-06-03T11:13:19.110Z,33.30
2018-06-03T11:15:49.504Z,32.10
2018-06-03T11:20:59.140Z,32.60
2018-06-03T11:23:31.393Z,32.60
2018-06-03T11:26:04.063Z,32.00
2018-06-03T11:28:34.728Z,32.40
2018-06-03T11:31:05.118Z,32.40
2018-06-03T11:33:41.806Z,33.10
2018-06-03T11:36:13.600Z,32.90
2018-06-03T11:38:47.050Z,33.70
2018-06-03T11:41:19.645Z,34.30
2018-06-03T11:43:53.687Z,35.50
2018-06-03T11:47:49.880Z,34.70
2018-06-03T11:50:22.429Z,34.00
2018-06-03T11:52:54.495Z,37.20
2018-06-03T11:55:26.253Z,39.70
2018-06-03T11:58:42.356Z,39.10
2018-06-03T12:01:16.105Z,39.60
2018-06-03T12:03:49.620Z,38.50
2018-06-03T12:06:22.794Z,36.30
2018-06-03T12:08:58.204Z,35.80
2018-06-03T12:11:30.162Z,34.20
2018-06-03T12:14:03.745Z,32.90
2018-06-03T12:16:37.508Z,30.70
2018-06-03T12:19:10.058Z,30.10
2018-06-03T12:21:43.054Z,29.90
2018-06-03T12:24:15.084Z,29.30
2018-06-03T12:26:48.167Z,28.00
2018-06-03T12:29:21.921Z,26.70
2018-06-03T12:31:56.311Z,26.20
2018-06-03T12:34:28.124Z,26.30
2018-06-03T12:37:00.592Z,25.30
2018-06-03T12:39:34.737Z,24.90
2018-06-03T12:42:05.498Z,24.00
2018-06-03T12:44:36.046Z,23.20
2018-06-03T12:47:07.039Z,22.90
2018-06-03T12:49:37.536Z,24.10
2018-06-03T12:52:08.317Z,24.90
2018-06-03T12:54:38.949Z,25.60
2018-06-03T12:57:09.569Z,25.90
2018-06-03T12:59:39.810Z,26.70
2018-06-03T13:02:10.092Z,26.80
2018-06-03T13:04:40.291Z,27.30
2018-06-03T13:07:10.533Z,27.70
2018-06-03T13:09:40.760Z,28.80
2018-06-03T13:12:10.983Z,30.00
2018-06-03T13:14:41.227Z,29.80
2018-06-03T13:17:11.575Z,29.80
2018-06-03T13:19:41.799Z,31.70
2018-06-03T13:22:12.044Z,30.20
2018-06-03T13:24:42.251Z,28.40
2018-06-03T13:27:13.038Z,28.20
2018-06-03T13:29:43.318Z,26.30
2018-06-03T13:32:13.886Z,25.30
2018-06-03T13:34:44.166Z,25.80
2018-06-03T13:37:14.451Z,27.10
2018-06-03T13:39:45.132Z,25.90
2018-06-03T13:42:15.414Z,25.40
2018-06-03T13:44:46.038Z,24.60
2018-06-03T13:47:16.467Z,25.60
2018-06-03T13:49:46.683Z,26.10
2018-06-03T13:54:47.138Z,25.20
2018-06-03T13:57:17.468Z,25.60
2018-06-03T13:59:47.720Z,27.20
2018-06-03T14:02:17.961Z,25.30
2018-06-03T14:04:48.194Z,25.20
2018-06-03T14:07:18.489Z,23.90
2018-06-03T14:09:48.834Z,24.70
2018-06-03T14:12:19.192Z,24.70
2018-06-03T14:14:49.484Z,25.00
2018-06-03T14:17:19.738Z,24.60
2018-06-03T14:19:49.943Z,25.00
2018-06-03T14:22:20.211Z,24.40
2018-06-03T14:24:50.447Z,24.30
2018-06-03T14:27:20.738Z,24.00
2018-06-03T14:29:51.128Z,23.90
2018-06-03T14:32:21.395Z,23.90
2018-06-03T14:34:51.708Z,24.20
2018-06-03T14:37:21.967Z,26.10
2018-06-03T14:39:52.222Z,25.50
2018-06-03T14:42:22.439Z,23.20
2018-06-03T14:44:52.763Z,25.20
2018-06-03T14:47:23.004Z,23.70
2018-06-03T14:49:53.280Z,23.80
2018-06-03T14:52:23.524Z,23.50
2018-06-03T14:54:53.762Z,22.60
2018-06-03T14:57:24.177Z,23.60
2018-06-03T14:59:54.411Z,24.30
2018-06-03T15:02:24.660Z,24.50
2018-06-03T15:04:54.927Z,24.20
2018-06-03T15:07:25.147Z,25.30
2018-06-03T15:09:55.414Z,26.00
2018-06-03T15:12:25.671Z,25.90
2018-06-03T15:15:02.696Z,27.70
2018-06-03T15:17:32.923Z,27.00
2018-06-03T15:20:03.174Z,27.20
2018-06-03T15:22:33.412Z,27.90
2018-06-03T15:25:03.823Z,27.50
2018-06-03T15:27:34.011Z,26.50
2018-06-03T15:30:04.304Z,25.70
2018-06-03T15:32:34.495Z,25.40
2018-06-03T15:35:04.743Z,25.70
2018-06-03T15:37:35.000Z,24.10
2018-06-03T15:40:05.356Z,25.80
2018-06-03T15:42:35.783Z,25.60
2018-06-03T15:45:06.135Z,26.50
2018-06-03T15:50:06.200Z,27.20
2018-06-03T15:52:36.399Z,27.70
2018-06-03T15:55:06.649Z,26.30
2018-06-03T15:57:36.858Z,26.50
2018-06-03T16:00:07.276Z,26.60
2018-06-03T16:02:37.509Z,26.30
2018-06-03T16:05:07.859Z,25.70
2018-06-03T16:07:38.355Z,25.10
2018-06-03T16:10:11.779Z,25.20
2018-06-03T16:12:42.684Z,25.00
2018-06-03T16:15:13.199Z,24.50
2018-06-03T16:17:43.528Z,25.10
2018-06-03T16:20:13.844Z,26.30
2018-06-03T16:22:44.109Z,26.80
2018-06-03T16:25:14.318Z,29.30
2018-06-03T16:27:44.608Z,29.20
2018-06-03T16:30:14.840Z,29.50
2018-06-03T16:32:45.073Z,29.70
2018-06-03T16:35:15.991Z,30.50
2018-06-03T16:37:46.331Z,30.30
2018-06-03T16:40:16.587Z,30.60
2018-06-03T16:42:46.824Z,31.30
2018-06-03T16:45:17.071Z,31.10
2018-06-03T16:47:47.288Z,31.90
2018-06-03T16:50:17.571Z,31.70
2018-06-03T16:52:47.803Z,31.90
2018-06-03T16:55:18.083Z,35.60
2018-06-03T16:57:48.400Z,37.90
2018-06-03T17:00:18.681Z,39.70
2018-06-03T17:02:48.903Z,40.40
2018-06-03T17:05:19.143Z,41.80
2018-06-03T17:07:49.340Z,41.70
2018-06-03T17:10:19.659Z,42.50
2018-06-03T17:12:54.674Z,42.50
2018-06-03T17:15:39.468Z,43.80
2018-06-03T17:18:09.703Z,44.00
2018-06-03T17:20:39.927Z,44.30
2018-06-03T17:23:10.159Z,44.40
2018-06-03T17:25:41.677Z,44.50
2018-06-03T17:28:12.198Z,45.40
2018-06-03T17:30:42.449Z,46.30
2018-06-03T17:33:12.659Z,46.40
2018-06-03T17:35:42.926Z,47.10
2018-06-03T17:38:13.200Z,47.00
2018-06-03T17:40:43.527Z,47.90
2018-06-03T17:43:14.379Z,48.30
2018-06-03T17:45:44.728Z,48.40
2018-06-03T17:48:14.966Z,48.50
2018-06-03T17:50:45.225Z,48.80
2018-06-03T17:53:15.495Z,48.60
2018-06-03T17:55:45.772Z,49.90
2018-06-03T17:58:16.059Z,49.40
2018-06-03T18:00:46.311Z,50.40
2018-06-03T18:03:16.519Z,50.80
2018-06-03T18:05:46.824Z,50.50
2018-06-03T18:08:17.051Z,50.90
2018-06-03T18:10:47.307Z,50.90
2018-06-03T18:13:17.580Z,51.40
2018-06-03T18:15:48.000Z,51.90
2018-06-03T18:18:18.223Z,52.50
2018-06-03T18:20:48.547Z,53.00
2018-06-03T18:23:18.775Z,52.60
2018-06-03T18:25:49.092Z,52.30
2018-06-03T18:28:19.350Z,51.70
2018-06-03T18:30:49.616Z,52.00
2018-06-03T18:33:19.837Z,52.40
2018-06-03T18:35:50.090Z,53.10
2018-06-03T18:38:20.331Z,53.60
2018-06-03T18:40:50.630Z,52.90
2018-06-03T18:43:20.842Z,53.20
2018-06-03T18:45:52.454Z,53.60
2018-06-03T18:48:22.647Z,53.90
2018-06-03T18:50:56.271Z,54.60
2018-06-03T18:53:27.871Z,54.40
2018-06-03T18:55:58.276Z,54.60
2018-06-03T18:58:28.613Z,54.70
2018-06-03T19:00:58.856Z,54.70
2018-06-03T19:03:29.200Z,55.30
2018-06-03T19:05:59.671Z,56.10
2018-06-03T19:08:30.040Z,56.60
2018-06-03T19:13:30.239Z,56.30
2018-06-03T19:16:00.485Z,56.40
2018-06-03T19:18:30.894Z,56.50
2018-06-03T19:21:01.269Z,56.60
2018-06-03T19:23:31.478Z,57.00
2018-06-03T19:26:01.965Z,57.30
2018-06-03T19:28:32.341Z,57.60
2018-06-03T19:31:02.815Z,58.30
2018-06-03T19:33:33.212Z,58.60
2018-06-03T19:36:03.459Z,58.80
2018-06-03T19:38:33.676Z,59.00
2018-06-03T19:41:03.987Z,59.00
2018-06-03T19:43:34.249Z,58.80
2018-06-03T19:46:04.671Z,59.20
2018-06-03T19:48:35.343Z,59.60
2018-06-03T19:51:05.631Z,59.80
2018-06-03T19:53:36.041Z,60.20
2018-06-03T19:56:06.333Z,60.70
2018-06-03T19:58:36.740Z,60.90
2018-06-03T20:01:07.610Z,61.00
2018-06-03T20:03:38.233Z,61.20
2018-06-03T20:06:08.601Z,61.40
2018-06-03T20:08:39.145Z,61.20
2018-06-03T20:11:09.929Z,61.60
2018-06-03T20:13:40.263Z,61.80
2018-06-03T20:18:40.696Z,62.60
2018-06-03T20:21:11.166Z,62.90
2018-06-03T20:23:41.454Z,62.50
2018-06-03T20:26:12.793Z,62.90
2018-06-03T20:28:43.267Z,63.00
2018-06-03T20:31:13.515Z,63.40
2018-06-03T20:33:45.216Z,63.70
2018-06-03T20:36:15.588Z,63.80
2018-06-03T20:38:47.179Z,63.60
2018-06-03T20:41:18.427Z,63.40
2018-06-03T20:43:49.422Z,63.50
2018-06-03T20:46:20.304Z,63.70
2018-06-03T20:48:51.793Z,63.90
2018-06-03T20:51:23.433Z,64.00
2018-06-03T20:53:54.764Z,64.10
2018-06-03T20:56:25.953Z,64.10
2018-06-03T20:58:56.731Z,64.00
2018-06-03T21:01:27.346Z,64.30
2018-06-03T21:03:59.263Z,64.30
2018-06-03T21:06:29.842Z,64.50
2018-06-03T21:09:01.489Z,64.90
2018-06-03T21:11:32.291Z,64.80
2018-06-03T21:14:04.857Z,64.90
2018-06-03T21:16:35.564Z,65.10
2018-06-03T21:19:06.231Z,65.20
2018-06-03T21:21:38.393Z,65.20
2018-06-03T21:24:09.305Z,65.30
2018-06-03T21:26:42.471Z,65.50
2018-06-03T21:29:13.181Z,65.60
2018-06-03T21:31:43.830Z,65.90
2018-06-03T21:34:14.192Z,65.90
2018-06-03T21:36:44.407Z,66.20
2018-06-03T21:39:15.111Z,66.30
2018-06-03T21:41:45.355Z,66.40
2018-06-03T21:44:15.650Z,66.40
2018-06-03T21:46:45.858Z,66.30
2018-06-03T21:49:16.148Z,66.50
2018-06-03T21:51:46.378Z,66.50
2018-06-03T21:54:16.610Z,66.70
2018-06-03T21:56:46.796Z,66.90
2018-06-03T21:59:17.056Z,67.00
2018-06-03T22:01:48.179Z,67.20
2018-06-03T22:04:19.056Z,67.00
2018-06-03T22:06:49.981Z,67.70
2018-06-03T22:09:20.944Z,67.70
2018-06-03T22:11:52.303Z,67.70
2018-06-03T22:14:23.582Z,67.30
2018-06-03T22:16:55.032Z,67.40
2018-06-03T22:19:25.638Z,67.40
2018-06-03T22:21:56.306Z,67.50
2018-06-03T22:24:27.133Z,67.50
2018-06-03T22:26:58.747Z,67.60
2018-06-03T22:29:29.374Z,67.50
2018-06-03T22:32:00.101Z,67.40
2018-06-03T22:34:30.371Z,67.50
2018-06-03T22:37:00.592Z,67.60
2018-06-03T22:39:30.830Z,67.40
2018-06-03T22:42:01.107Z,67.40
2018-06-03T22:44:31.316Z,67.20
2018-06-03T22:47:01.571Z,67.20
2018-06-03T22:49:31.779Z,67.20
2018-06-03T22:52:02.014Z,67.50
2018-06-03T22:54:32.267Z,67.70
2018-06-03T22:58:08.411Z,67.90
2018-06-03T23:00:38.738Z,68.10
2018-06-03T23:03:14.919Z,68.40
2018-06-03T23:05:45.154Z,68.60
2018-06-03T23:08:15.362Z,68.90
2018-06-03T23:10:48.435Z,69.20
2018-06-03T23:13:18.683Z,69.20
2018-06-03T23:15:48.972Z,69.10
2018-06-03T23:18:19.220Z,69.00
2018-06-03T23:20:49.483Z,68.90
2018-06-03T23:23:19.799Z,68.70
2018-06-03T23:25:50.031Z,68.90
2018-06-03T23:28:20.306Z,68.80
2018-06-03T23:30:50.604Z,68.60
2018-06-03T23:35:50.852Z,68.30
2018-06-03T23:38:21.079Z,68.10
2018-06-03T23:40:51.385Z,68.20
2018-06-03T23:43:21.687Z,68.00
2018-06-03T23:45:52.164Z,68.10
2018-06-03T23:48:22.368Z,67.90
2018-06-03T23:50:52.651Z,67.80
2018-06-03T23:53:22.873Z,67.70
2018-06-03T23:55:53.112Z,67.60
2018-06-03T23:58:23.345Z,67.40
